Time;durP1;ratioP1;P1;durP2;ratioP2;P2;SDS_P1;SDS_P2;PMS_P1;PMS_P2;Temp;Humidity;BMP_temperature;BMP_pressure;BME280_temperature;BME280_humidity;BME280_pressure;Samples;Min_cycle;Max_cycle;Signal;HPM_P1;HPM_P2
2022/07/08 00:00:54;;;;;;;5.78;4.50;;;;;;;;;;10058594;28;20412;-61
2022/07/08 00:05:48;;;;;;;6.28;4.97;;;;;;;;;;10057854;28;20155;-61
2022/07/08 00:10:41;;;;;;;4.55;4.15;;;;;;;;;;10060626;28;20053;-61
2022/07/08 00:15:36;;;;;;;4.07;3.78;;;;;;;;;;10066251;28;20415;-61
2022/07/08 00:20:30;;;;;;;6.15;4.30;;;;;;;;;;10071394;28;20472;-61
2022/07/08 00:25:24;;;;;;;6.63;5.00;;;;;;;;;;10061283;28;20077;-61
2022/07/08 00:30:19;;;;;;;7.40;6.10;;;;;;;;;;10069881;28;20049;-61
2022/07/08 00:35:14;;;;;;;7.43;4.95;;;;;;;;;;10074066;28;20041;-61
2022/07/08 00:40:11;;;;;;;7.60;5.15;;;;;;;;;;10066055;28;20416;-60
2022/07/08 00:45:08;;;;;;;8.10;5.10;;;;;;;;;;10070133;28;20091;-61
2022/07/08 00:50:03;;;;;;;5.07;4.68;;;;;;;;;;10065609;28;20058;-61
2022/07/08 00:54:57;;;;;;;9.38;5.78;;;;;;;;;;10069674;28;20121;-61
2022/07/08 00:59:51;;;;;;;6.88;5.80;;;;;;;;;;10069934;28;20053;-61
2022/07/08 01:04:44;;;;;;;6.72;5.85;;;;;;;;;;10071176;28;20056;-61
2022/07/08 01:09:37;;;;;;;6.20;5.60;;;;;;;;;;10062769;28;20088;-61
2022/07/08 01:14:30;;;;;;;11.07;6.45;;;;;;;;;;10060074;28;20171;-61
2022/07/08 01:19:24;;;;;;;6.07;5.57;;;;;;;;;;10068253;28;20099;-61
2022/07/08 01:24:18;;;;;;;7.13;6.45;;;;;;;;;;10061257;28;20520;-61
2022/07/08 01:29:14;;;;;;;8.35;6.60;;;;;;;;;;10063848;28;20049;-61
2022/07/08 01:34:07;;;;;;;7.07;6.38;;;;;;;;;;10068424;28;20468;-62
2022/07/08 01:39:01;;;;;;;9.98;6.95;;;;;;;;;;10059671;28;20136;-61
2022/07/08 01:43:54;;;;;;;8.23;7.45;;;;;;;;;;10067570;28;20515;-62
2022/07/08 01:48:48;;;;;;;8.82;6.70;;;;;;;;;;10064142;28;20148;-61
2022/07/08 01:53:42;;;;;;;8.82;7.30;;;;;;;;;;10063882;28;20049;-61
2022/07/08 01:58:36;;;;;;;10.57;7.00;;;;;;;;;;10062036;28;20065;-62
2022/07/08 02:03:30;;;;;;;7.53;6.88;;;;;;;;;;10059733;28;20136;-62
2022/07/08 02:08:23;;;;;;;7.80;7.03;;;;;;;;;;10062773;28;20089;-61
2022/07/08 02:13:18;;;;;;;10.65;7.03;;;;;;;;;;10066895;28;20140;-61
2022/07/08 02:18:12;;;;;;;8.38;7.68;;;;;;;;;;10063271;28;20100;-61
2022/07/08 02:23:06;;;;;;;7.57;6.88;;;;;;;;;;10066613;28;20059;-61
2022/07/08 02:28:00;;;;;;;7.45;6.75;;;;;;;;;;10063314;28;20512;-61
2022/07/08 02:32:54;;;;;;;7.47;6.60;;;;;;;;;;10060069;28;20060;-61
2022/07/08 02:37:48;;;;;;;8.15;6.22;;;;;;;;;;10055370;28;20132;-63
2022/07/08 02:42:42;;;;;;;8.18;7.38;;;;;;;;;;10062003;28;20057;-63
2022/07/08 02:47:36;;;;;;;6.75;6.15;;;;;;;;;;10061972;28;20064;-63
2022/07/08 02:52:30;;;;;;;7.35;6.75;;;;;;;;;;10062530;28;20083;-63
2022/07/08 02:57:24;;;;;;;9.13;6.63;;;;;;;;;;10063199;28;20140;-63
2022/07/08 03:02:18;;;;;;;8.00;7.22;;;;;;;;;;10066490;28;20064;-63
2022/07/08 03:07:12;;;;;;;10.50;7.70;;;;;;;;;;10066199;28;20493;-63
2022/07/08 03:12:07;;;;;;;9.35;8.40;;;;;;;;;;10061101;28;20107;-63
2022/07/08 03:17:01;;;;;;;8.52;7.45;;;;;;;;;;10062358;28;20057;-63
2022/07/08 03:21:55;;;;;;;8.50;7.75;;;;;;;;;;10060088;28;20564;-63
2022/07/08 03:26:48;;;;;;;11.43;7.95;;;;;;;;;;10064987;28;20144;-62
2022/07/08 03:31:42;;;;;;;10.65;7.78;;;;;;;;;;10059316;28;20072;-62
2022/07/08 03:36:35;;;;;;;9.95;7.55;;;;;;;;;;10059169;28;20484;-62
2022/07/08 03:41:29;;;;;;;13.50;7.45;;;;;;;;;;10063009;28;20045;-62
2022/07/08 03:46:24;;;;;;;12.10;8.15;;;;;;;;;;10060260;28;20524;-63
2022/07/08 03:51:20;;;;;;;9.20;8.25;;;;;;;;;;10052010;28;20068;-62
2022/07/08 03:56:14;;;;;;;8.75;7.88;;;;;;;;;;10044837;28;20512;-62
2022/07/08 04:01:08;;;;;;;14.77;7.30;;;;;;;;;;10048167;28;20416;-63
2022/07/08 04:06:03;;;;;;;11.73;8.23;;;;;;;;;;10048279;28;20136;-63
2022/07/08 04:10:57;;;;;;;7.95;7.25;;;;;;;;;;10044039;28;20128;-63
2022/07/08 04:15:51;;;;;;;8.38;7.65;;;;;;;;;;10047002;28;20045;-63
2022/07/08 04:20:45;;;;;;;10.15;6.80;;;;;;;;;;10065894;28;20459;-63
2022/07/08 04:25:39;;;;;;;9.95;7.13;;;;;;;;;;10066807;28;20054;-63
2022/07/08 04:30:33;;;;;;;11.20;8.10;;;;;;;;;;10040903;28;20092;-63
2022/07/08 04:35:26;;;;;;;9.15;8.25;;;;;;;;;;10054103;28;20049;-62
2022/07/08 04:40:22;;;;;;;12.45;8.50;;;;;;;;;;10056961;28;20148;-62
2022/07/08 04:45:16;;;;;;;11.52;8.45;;;;;;;;;;10046700;28;20053;-62
2022/07/08 04:50:09;;;;;;;8.30;7.53;;;;;;;;;;10045326;28;20054;-62
2022/07/08 04:55:03;;;;;;;9.85;8.95;;;;;;;;;;10053654;28;20041;-61
2022/07/08 04:59:58;;;;;;;15.07;9.73;;;;;;;;;;10050623;28;20455;-62
2022/07/08 05:04:52;;;;;;;10.02;8.95;;;;;;;;;;10048804;28;20050;-61
2022/07/08 05:09:46;;;;;;;10.40;8.65;;;;;;;;;;10052078;28;20049;-61
2022/07/08 05:14:40;;;;;;;9.55;8.38;;;;;;;;;;10065281;28;20119;-62
2022/07/08 05:19:35;;;;;;;10.65;9.65;;;;;;;;;;10067605;28;20041;-62
2022/07/08 05:24:29;;;;;;;10.80;9.68;;;;;;;;;;10065789;28;20054;-60
2022/07/08 05:29:23;;;;;;;10.85;9.65;;;;;;;;;;10066064;28;20125;-60
2022/07/08 05:34:17;;;;;;;12.85;11.55;;;;;;;;;;10062865;28;20068;-59
2022/07/08 05:39:12;;;;;;;13.00;11.02;;;;;;;;;;10055280;28;20052;-60
2022/07/08 05:44:05;;;;;;;14.10;10.43;;;;;;;;;;10061329;28;20492;-61
2022/07/08 05:48:59;;;;;;;14.82;8.82;;;;;;;;;;10059275;28;20137;-61
2022/07/08 05:53:55;;;;;;;10.80;9.07;;;;;;;;;;10069638;28;20132;-70
2022/07/08 05:58:48;;;;;;;6.20;5.60;;;;;;;;;;10069283;28;20062;-68
2022/07/08 06:03:43;;;;;;;8.13;5.47;;;;;;;;;;10063712;28;20501;-69
2022/07/08 06:08:37;;;;;;;5.47;4.97;;;;;;;;;;10061227;28;20136;-68
2022/07/08 06:13:32;;;;;;;8.45;5.30;;;;;;;;;;10057507;28;20136;-70
2022/07/08 06:18:26;;;;;;;8.30;6.60;;;;;;;;;;10052503;28;20153;-70
2022/07/08 06:23:20;;;;;;;9.32;7.57;;;;;;;;;;10060325;28;20058;-70
2022/07/08 06:28:15;;;;;;;9.43;8.60;;;;;;;;;;10065828;28;20107;-73
2022/07/08 06:33:09;;;;;;;9.73;8.52;;;;;;;;;;10050919;28;20533;-73
2022/07/08 06:38:04;;;;;;;10.18;9.15;;;;;;;;;;10047854;28;20413;-74
2022/07/08 06:42:58;;;;;;;10.02;7.70;;;;;;;;;;10051077;28;20053;-75
2022/07/08 06:47:53;;;;;;;10.35;8.60;;;;;;;;;;10050435;28;20152;-73
2022/07/08 06:52:47;;;;;;;9.98;8.55;;;;;;;;;;10056850;28;20513;-72
2022/07/08 06:57:41;;;;;;;8.68;7.63;;;;;;;;;;10048429;28;20057;-74
2022/07/08 07:02:35;;;;;;;8.32;6.85;;;;;;;;;;10055709;28;20074;-74
2022/07/08 07:07:29;;;;;;;15.63;7.78;;;;;;;;;;10052780;28;20058;-73
2022/07/08 07:12:23;;;;;;;13.82;7.50;;;;;;;;;;10056593;28;20153;-73
2022/07/08 07:17:21;;;;;;;8.75;7.10;;;;;;;;;;10050009;28;20046;-73
2022/07/08 07:22:16;;;;;;;10.27;6.82;;;;;;;;;;10059402;28;20050;-74
2022/07/08 07:27:09;;;;;;;7.13;6.40;;;;;;;;;;10052971;28;20496;-73
2022/07/08 07:32:04;;;;;;;8.63;5.70;;;;;;;;;;10055325;28;20053;-73
2022/07/08 07:36:58;;;;;;;9.73;5.88;;;;;;;;;;10054710;28;20041;-73
2022/07/08 07:41:52;;;;;;;8.63;5.05;;;;;;;;;;10056077;28;20381;-75
2022/07/08 07:46:46;;;;;;;8.25;5.65;;;;;;;;;;10059593;28;20586;-74
2022/07/08 07:51:39;;;;;;;8.55;5.32;;;;;;;;;;10059761;28;20095;-74
2022/07/08 07:56:34;;;;;;;12.90;5.80;;;;;;;;;;10054870;28;20073;-73
2022/07/08 08:01:28;;;;;;;12.68;4.68;;;;;;;;;;10049787;28;20071;-73
2022/07/08 08:06:22;;;;;;;6.97;4.25;;;;;;;;;;10046063;28;20050;-74
2022/07/08 08:11:16;;;;;;;9.20;5.15;;;;;;;;;;10043754;28;20068;-68
2022/07/08 08:16:10;;;;;;;10.27;5.07;;;;;;;;;;10044748;28;20053;-69
2022/07/08 08:21:05;;;;;;;7.38;5.25;;;;;;;;;;10049227;28;20125;-69
2022/07/08 08:25:59;;;;;;;11.40;5.57;;;;;;;;;;10042207;28;20058;-69
2022/07/08 08:30:53;;;;;;;13.77;5.95;;;;;;;;;;10048417;28;20558;-69
2022/07/08 08:35:47;;;;;;;12.60;6.20;;;;;;;;;;10043569;28;20056;-70
2022/07/08 08:40:42;;;;;;;13.00;6.72;;;;;;;;;;10054880;28;20049;-72
2022/07/08 08:45:37;;;;;;;8.48;5.75;;;;;;;;;;10053565;28;20049;-70
2022/07/08 08:55:45;;;;;;;14.18;4.97;;;;;;;;;;10063189;28;20117;-72
2022/07/08 09:00:39;;;;;;;11.93;6.43;;;;;;;;;;10060399;28;20064;-71
2022/07/08 09:05:33;;;;;;;11.27;6.72;;;;;;;;;;10059425;28;20042;-71
2022/07/08 09:10:27;;;;;;;15.98;4.57;;;;;;;;;;10058828;28;20508;-72
2022/07/08 09:15:51;;;;;;;22.75;6.43;;;;;;;;;;10061911;28;20166;-72
2022/07/08 09:20:45;;;;;;;6.75;2.63;;;;;;;;;;10064161;28;20045;-71
2022/07/08 09:25:41;;;;;;;4.15;2.33;;;;;;;;;;10066686;28;20103;-71
2022/07/08 09:30:35;;;;;;;5.75;3.10;;;;;;;;;;10066778;28;20057;-73
2022/07/08 09:35:50;;;;;;;8.32;2.53;;;;;;;;;;10067676;28;20045;-71
2022/07/08 09:41:03;;;;;;;6.25;2.20;;;;;;;;;;10062620;28;20050;-71
2022/07/08 09:46:05;;;;;;;8.50;2.47;;;;;;;;;;10067458;28;20132;-71
2022/07/08 09:51:18;;;;;;;5.88;2.20;;;;;;;;;;10064080;28;20053;-75
2022/07/08 09:56:12;;;;;;;8.60;2.47;;;;;;;;;;10059558;28;20049;-76
2022/07/08 10:01:06;;;;;;;7.90;1.50;;;;;;;;;;10045774;28;20071;-72
2022/07/08 10:06:00;;;;;;;4.00;1.80;;;;;;;;;;10046247;28;20060;-66
2022/07/08 10:10:57;;;;;;;5.20;1.48;;;;;;;;;;10057556;28;20056;-65
2022/07/08 10:15:56;;;;;;;8.50;2.05;;;;;;;;;;10046341;28;20447;-65
2022/07/08 10:20:54;;;;;;;9.38;2.00;;;;;;;;;;10049998;28;20467;-65
2022/07/08 10:25:49;;;;;;;8.65;1.83;;;;;;;;;;10045323;28;20045;-65
2022/07/08 10:30:52;;;;;;;5.32;1.83;;;;;;;;;;10051290;28;20049;-66
2022/07/08 10:36:05;;;;;;;1.27;1.13;;;;;;;;;;10050585;28;20111;-65
2022/07/08 10:41:11;;;;;;;3.28;1.48;;;;;;;;;;10049209;28;20068;-66
2022/07/08 10:46:15;;;;;;;3.17;1.20;;;;;;;;;;10055141;28;20042;-66
2022/07/08 10:51:20;;;;;;;2.92;1.27;;;;;;;;;;10055565;28;20053;-66
2022/07/08 10:56:54;;;;;;;4.03;1.05;;;;;;;;;;10052494;28;20073;-66
2022/07/08 11:02:05;;;;;;;1.08;0.90;;;;;;;;;;10052714;28;20045;-66
2022/07/08 11:07:38;;;;;;;1.95;0.90;;;;;;;;;;10047904;28;20049;-66
2022/07/08 11:12:35;;;;;;;2.53;1.10;;;;;;;;;;10059635;28;20061;-66
2022/07/08 11:17:30;;;;;;;1.98;1.20;;;;;;;;;;10047163;28;20050;-66
2022/07/08 11:22:27;;;;;;;4.55;1.10;;;;;;;;;;10053147;28;20111;-71
2022/07/08 11:27:25;;;;;;;6.50;1.25;;;;;;;;;;10063021;28;20041;-70
2022/07/08 11:32:20;;;;;;;1.00;0.70;;;;;;;;;;10063152;28;20045;-70
2022/07/08 11:37:15;;;;;;;1.73;1.08;;;;;;;;;;10060737;28;20092;-71
2022/07/08 11:42:09;;;;;;;1.92;0.90;;;;;;;;;;10054403;28;20050;-71
2022/07/08 11:47:05;;;;;;;5.72;1.17;;;;;;;;;;10046640;28;20073;-71
2022/07/08 11:52:00;;;;;;;12.60;2.55;;;;;;;;;;10059345;28;20124;-70
2022/07/08 11:57:00;;;;;;;6.03;1.25;;;;;;;;;;10066821;28;20511;-71
2022/07/08 12:01:55;;;;;;;1.85;1.13;;;;;;;;;;10054352;28;20038;-71
2022/07/08 12:06:52;;;;;;;2.17;1.02;;;;;;;;;;10056674;28;20108;-71
2022/07/08 12:11:49;;;;;;;4.80;1.05;;;;;;;;;;10063691;28;20476;-71
2022/07/08 12:16:49;;;;;;;1.83;0.93;;;;;;;;;;10055517;28;20182;-72
2022/07/08 12:21:43;;;;;;;3.55;1.00;;;;;;;;;;10064690;28;20080;-71
2022/07/08 12:26:36;;;;;;;1.15;0.70;;;;;;;;;;10062655;28;20420;-70
2022/07/08 12:31:37;;;;;;;2.33;1.02;;;;;;;;;;10060613;28;20041;-71
2022/07/08 12:36:32;;;;;;;2.22;1.00;;;;;;;;;;10063753;28;20569;-71
2022/07/08 12:41:26;;;;;;;2.47;0.93;;;;;;;;;;10054354;28;20400;-71
2022/07/08 12:46:21;;;;;;;7.50;1.02;;;;;;;;;;10052348;28;20058;-71
2022/07/08 12:51:16;;;;;;;4.00;0.88;;;;;;;;;;10046758;28;20057;-71
2022/07/08 12:56:12;;;;;;;1.77;0.88;;;;;;;;;;10060838;28;20144;-71
2022/07/08 13:01:06;;;;;;;1.60;0.85;;;;;;;;;;10076814;28;20124;-71
2022/07/08 13:06:08;;;;;;;4.30;0.80;;;;;;;;;;10080995;28;20046;-71
2022/07/08 13:11:02;;;;;;;1.52;0.60;;;;;;;;;;10060984;28;20069;-71
2022/07/08 13:15:56;;;;;;;3.88;1.00;;;;;;;;;;10057436;28;20103;-71
2022/07/08 13:20:51;;;;;;;1.30;0.77;;;;;;;;;;10045460;28;20057;-73
2022/07/08 13:25:48;;;;;;;3.35;0.70;;;;;;;;;;10039884;28;20057;-72
2022/07/08 13:30:43;;;;;;;1.58;0.60;;;;;;;;;;10053637;28;20515;-71
2022/07/08 13:35:37;;;;;;;1.65;0.90;;;;;;;;;;10065269;28;20394;-71
2022/07/08 13:40:32;;;;;;;1.00;0.60;;;;;;;;;;10071794;28;20132;-72
2022/07/08 13:45:26;;;;;;;2.20;0.80;;;;;;;;;;10061476;28;20053;-71
2022/07/08 13:50:20;;;;;;;2.78;0.80;;;;;;;;;;10062669;28;20053;-71
2022/07/08 13:55:14;;;;;;;1.75;0.90;;;;;;;;;;10068882;28;20061;-71
2022/07/08 14:00:12;;;;;;;0.98;0.63;;;;;;;;;;10054200;28;20057;-71
2022/07/08 14:05:08;;;;;;;4.10;0.90;;;;;;;;;;10061959;28;20406;-71
2022/07/08 14:10:02;;;;;;;1.80;0.70;;;;;;;;;;10062472;28;20049;-73
2022/07/08 14:14:58;;;;;;;1.00;0.90;;;;;;;;;;10060693;28;20053;-72
2022/07/08 14:19:52;;;;;;;2.90;0.80;;;;;;;;;;10064437;28;20148;-71
2022/07/08 14:24:46;;;;;;;1.95;0.90;;;;;;;;;;10070271;28;20137;-72
2022/07/08 14:29:40;;;;;;;2.30;0.95;;;;;;;;;;10060597;28;20060;-71
2022/07/08 14:34:35;;;;;;;2.28;0.60;;;;;;;;;;10059963;28;20144;-72
2022/07/08 14:39:29;;;;;;;4.97;0.90;;;;;;;;;;10069310;28;20041;-72
2022/07/08 14:44:24;;;;;;;1.50;1.00;;;;;;;;;;10060992;28;20096;-72
2022/07/08 14:49:22;;;;;;;2.45;0.65;;;;;;;;;;10051095;28;20469;-72
2022/07/08 14:54:16;;;;;;;1.10;0.50;;;;;;;;;;10061636;28;20449;-72
2022/07/08 14:59:10;;;;;;;3.03;0.70;;;;;;;;;;10052121;28;20058;-71
2022/07/08 15:04:05;;;;;;;4.60;0.70;;;;;;;;;;10057367;28;20084;-74
2022/07/08 15:08:59;;;;;;;2.38;0.68;;;;;;;;;;10059599;28;20050;-78
2022/07/08 15:13:52;;;;;;;4.50;0.60;;;;;;;;;;10064407;28;20403;-79
2022/07/08 15:18:47;;;;;;;1.05;0.70;;;;;;;;;;10064362;28;20456;-77
2022/07/08 15:23:41;;;;;;;0.63;0.50;;;;;;;;;;10064160;28;20184;-80
2022/07/08 15:28:37;;;;;;;1.65;0.43;;;;;;;;;;10060040;28;20057;-79
2022/07/08 15:33:32;;;;;;;0.57;0.57;;;;;;;;;;10066394;28;20469;-78
2022/07/08 15:38:27;;;;;;;1.55;0.70;;;;;;;;;;10065150;28;20319;-80
2022/07/08 15:43:20;;;;;;;1.13;0.57;;;;;;;;;;10058471;28;20073;-83
2022/07/08 15:48:15;;;;;;;0.57;0.40;;;;;;;;;;10063229;28;20049;-80
2022/07/08 15:53:09;;;;;;;0.73;0.60;;;;;;;;;;10060170;28;20049;-80
2022/07/08 15:58:03;;;;;;;0.93;0.50;;;;;;;;;;10065441;28;20053;-79
2022/07/08 16:02:57;;;;;;;4.15;0.63;;;;;;;;;;10062569;28;20451;-79
2022/07/08 16:07:51;;;;;;;0.40;0.40;;;;;;;;;;10054632;28;20092;-79
2022/07/08 16:12:46;;;;;;;2.58;0.50;;;;;;;;;;10065727;28;20060;-79
2022/07/08 16:17:40;;;;;;;5.10;0.57;;;;;;;;;;10065813;28;20041;-79
2022/07/08 16:22:34;;;;;;;0.40;0.40;;;;;;;;;;10061452;28;20477;-78
2022/07/08 16:27:32;;;;;;;1.15;0.60;;;;;;;;;;10063241;28;20049;-78
2022/07/08 16:32:27;;;;;;;0.40;0.40;;;;;;;;;;10052043;28;20134;-79
2022/07/08 16:37:21;;;;;;;0.63;0.52;;;;;;;;;;10053307;28;20137;-78
2022/07/08 16:42:16;;;;;;;1.45;0.60;;;;;;;;;;10072531;28;20447;-76
2022/07/08 16:47:09;;;;;;;2.78;1.08;;;;;;;;;;10051646;28;20557;-78
2022/07/08 16:52:04;;;;;;;3.03;0.50;;;;;;;;;;10051620;28;20042;-78
2022/07/08 16:57:00;;;;;;;1.38;0.52;;;;;;;;;;10059338;28;20073;-80
2022/07/08 17:01:54;;;;;;;0.77;0.50;;;;;;;;;;10052436;28;20544;-79
2022/07/08 17:06:48;;;;;;;6.13;0.98;;;;;;;;;;10050363;28;20058;-78
2022/07/08 17:11:42;;;;;;;0.43;0.43;;;;;;;;;;10056380;28;20054;-78
2022/07/08 17:16:37;;;;;;;0.60;0.60;;;;;;;;;;10061724;28;20125;-77
2022/07/08 17:21:33;;;;;;;2.45;0.70;;;;;;;;;;10069230;28;20045;-73
2022/07/08 17:26:28;;;;;;;1.38;0.70;;;;;;;;;;10068732;28;20376;-76
2022/07/08 17:31:22;;;;;;;1.02;0.70;;;;;;;;;;10063441;28;20041;-76
2022/07/08 17:36:16;;;;;;;2.35;0.75;;;;;;;;;;10066563;28;20050;-77
2022/07/08 17:41:12;;;;;;;3.03;0.70;;;;;;;;;;10070062;28;20061;-77
2022/07/08 17:46:06;;;;;;;1.95;0.63;;;;;;;;;;10066877;28;20503;-78
2022/07/08 17:51:00;;;;;;;0.45;0.43;;;;;;;;;;10051603;28;20052;-76
2022/07/08 17:55:54;;;;;;;0.50;0.50;;;;;;;;;;10064065;28;20050;-78
2022/07/08 18:00:48;;;;;;;0.50;0.50;;;;;;;;;;10062454;28;20050;-76
2022/07/08 18:05:42;;;;;;;3.03;0.95;;;;;;;;;;10070228;28;20073;-72
2022/07/08 18:10:36;;;;;;;2.15;0.70;;;;;;;;;;10066768;28;20108;-73
2022/07/08 18:15:31;;;;;;;3.40;0.70;;;;;;;;;;10069735;28;20249;-69
2022/07/08 18:20:25;;;;;;;1.95;0.68;;;;;;;;;;10048951;28;20416;-67
2022/07/08 18:25:19;;;;;;;0.50;0.50;;;;;;;;;;10063194;28;20054;-68
2022/07/08 18:30:13;;;;;;;1.05;0.57;;;;;;;;;;10057615;28;20050;-67
2022/07/08 18:35:08;;;;;;;0.95;0.60;;;;;;;;;;10058760;28;20412;-68
2022/07/08 18:40:02;;;;;;;1.20;0.68;;;;;;;;;;10063994;28;20073;-70
2022/07/08 18:44:57;;;;;;;0.73;0.60;;;;;;;;;;10056675;28;20421;-71
2022/07/08 18:49:51;;;;;;;3.10;1.30;;;;;;;;;;10064071;28;20049;-72
2022/07/08 18:54:45;;;;;;;1.15;0.63;;;;;;;;;;10063386;28;20117;-72
2022/07/08 18:59:39;;;;;;;1.98;0.57;;;;;;;;;;10065320;28;20061;-69
2022/07/08 19:04:33;;;;;;;0.65;0.65;;;;;;;;;;10064216;28;20061;-71
2022/07/08 19:09:27;;;;;;;1.08;1.08;;;;;;;;;;10065989;28;20572;-73
2022/07/08 19:14:20;;;;;;;3.28;1.13;;;;;;;;;;10064421;28;20053;-70
2022/07/08 19:19:15;;;;;;;1.52;1.15;;;;;;;;;;10064866;28;20042;-69
2022/07/08 19:24:09;;;;;;;1.50;1.40;;;;;;;;;;10067832;28;20099;-70
2022/07/08 19:29:02;;;;;;;5.28;1.08;;;;;;;;;;10065819;28;20072;-71
2022/07/08 19:33:57;;;;;;;0.63;0.63;;;;;;;;;;10063937;28;20057;-70
2022/07/08 19:38:51;;;;;;;2.45;0.90;;;;;;;;;;10063561;28;20049;-69
2022/07/08 19:43:46;;;;;;;1.45;0.98;;;;;;;;;;10062797;28;20149;-70
2022/07/08 19:48:40;;;;;;;1.38;0.80;;;;;;;;;;10064032;28;20107;-71
2022/07/08 19:53:35;;;;;;;6.65;0.90;;;;;;;;;;10065545;28;20114;-71
2022/07/08 19:58:34;;;;;;;3.50;0.90;;;;;;;;;;10069785;28;20053;-71
2022/07/08 20:03:31;;;;;;;4.55;0.70;;;;;;;;;;10060165;28;20049;-70
2022/07/08 20:08:26;;;;;;;7.13;1.13;;;;;;;;;;10062824;28;20141;-70
2022/07/08 20:13:21;;;;;;;10.57;1.45;;;;;;;;;;10062921;28;20679;-71
2022/07/08 20:18:17;;;;;;;3.70;1.42;;;;;;;;;;10062586;28;20120;-70
2022/07/08 20:23:14;;;;;;;5.75;1.13;;;;;;;;;;10064674;28;20046;-71
2022/07/08 20:28:08;;;;;;;0.90;0.70;;;;;;;;;;10066318;28;20501;-70
2022/07/08 20:33:03;;;;;;;3.30;1.20;;;;;;;;;;10065276;28;20124;-71
2022/07/08 20:38:00;;;;;;;4.22;1.00;;;;;;;;;;10065122;28;20038;-70
2022/07/08 20:42:54;;;;;;;2.92;1.10;;;;;;;;;;10058778;28;20100;-71
2022/07/08 20:47:48;;;;;;;1.48;0.90;;;;;;;;;;10074167;28;20061;-70
2022/07/08 20:52:43;;;;;;;6.50;0.95;;;;;;;;;;10072954;28;20466;-71
2022/07/08 20:57:39;;;;;;;1.35;0.80;;;;;;;;;;10073500;28;20115;-71
2022/07/08 21:02:36;;;;;;;;;;;;;;;;;;10068127;28;20103;-71
2022/07/08 21:07:31;;;;;;;0.80;0.80;;;;;;;;;;10073513;28;19928;-71
2022/07/08 21:12:25;;;;;;;1.65;0.93;;;;;;;;;;10073845;28;20053;-71
2022/07/08 21:17:20;;;;;;;1.23;0.80;;;;;;;;;;10068641;28;20641;-71
2022/07/08 21:22:13;;;;;;;3.50;0.98;;;;;;;;;;10070186;28;20468;-70
2022/07/08 21:27:06;;;;;;;1.50;1.02;;;;;;;;;;10072439;28;20048;-71
2022/07/08 21:32:00;;;;;;;2.42;1.00;;;;;;;;;;10072334;28;20064;-63
2022/07/08 21:36:55;;;;;;;2.33;1.00;;;;;;;;;;10071863;28;20067;-63
2022/07/08 21:41:49;;;;;;;1.60;0.75;;;;;;;;;;10070618;28;20061;-63
2022/07/08 21:46:44;;;;;;;2.05;0.90;;;;;;;;;;10069229;28;20504;-63
2022/07/08 21:51:39;;;;;;;1.10;0.90;;;;;;;;;;10074890;28;20053;-63
2022/07/08 21:56:33;;;;;;;0.70;0.70;;;;;;;;;;10070087;28;21931;-63
2022/07/08 22:01:27;;;;;;;2.72;0.80;;;;;;;;;;10070987;28;20052;-63
2022/07/08 22:06:20;;;;;;;4.45;2.58;;;;;;;;;;10071042;28;20053;-62
2022/07/08 22:11:15;;;;;;;2.30;1.50;;;;;;;;;;10071580;28;20057;-62
2022/07/08 22:16:09;;;;;;;2.35;0.80;;;;;;;;;;10070749;28;20508;-65
2022/07/08 22:21:03;;;;;;;3.70;0.98;;;;;;;;;;10070532;28;20419;-68
2022/07/08 22:25:58;;;;;;;1.83;1.00;;;;;;;;;;10069791;28;20076;-63
2022/07/08 22:30:52;;;;;;;2.95;1.42;;;;;;;;;;10070827;28;20064;-63
2022/07/08 22:35:45;;;;;;;3.17;1.35;;;;;;;;;;10070749;28;20037;-63
2022/07/08 22:40:39;;;;;;;2.58;0.90;;;;;;;;;;10065466;28;20057;-65
2022/07/08 22:45:33;;;;;;;2.67;1.63;;;;;;;;;;10066770;28;20412;-65
2022/07/08 22:50:27;;;;;;;2.75;1.30;;;;;;;;;;10069318;28;20393;-65
2022/07/08 22:55:22;;;;;;;2.15;1.02;;;;;;;;;;10072308;28;20045;-65
2022/07/08 23:00:16;;;;;;;1.50;1.13;;;;;;;;;;10073799;28;20463;-63
2022/07/08 23:05:10;;;;;;;2.95;1.45;;;;;;;;;;10068369;28;20059;-63
2022/07/08 23:10:10;;;;;;;1.88;1.30;;;;;;;;;;10067294;28;20042;-63
2022/07/08 23:15:04;;;;;;;2.10;0.85;;;;;;;;;;10065928;28;20128;-64
2022/07/08 23:19:59;;;;;;;1.55;1.45;;;;;;;;;;10062870;28;20221;-65
2022/07/08 23:24:52;;;;;;;2.55;1.30;;;;;;;;;;10060896;28;20466;-64
2022/07/08 23:29:48;;;;;;;4.85;1.10;;;;;;;;;;10061636;28;20124;-68
2022/07/08 23:34:42;;;;;;;3.10;1.05;;;;;;;;;;10062696;28;20077;-67
2022/07/08 23:39:36;;;;;;;1.98;1.48;;;;;;;;;;10062335;28;20061;-69
2022/07/08 23:44:30;;;;;;;1.27;1.17;;;;;;;;;;10061457;28;20071;-69
2022/07/08 23:49:23;;;;;;;2.90;1.17;;;;;;;;;;10045337;28;20037;-75
2022/07/08 23:54:18;;;;;;;2.92;1.38;;;;;;;;;;10046773;28;20108;-76
2022/07/08 23:59:12;;;;;;;3.33;1.10;;;;;;;;;;10045592;28;20412;-76
